createdAt,value
2022-12-27T00:00:07.668Z,101783.59
2022-12-27T00:02:43.332Z,101801.06
2022-12-27T00:05:11.918Z,101804.63
2022-12-27T00:07:39.981Z,101775.13
2022-12-27T00:10:10.065Z,101761.44
2022-12-27T00:12:38.887Z,101776.75
2022-12-27T00:15:07.385Z,101789.28
2022-12-27T00:17:35.601Z,101797.22
2022-12-27T00:20:11.081Z,101734.38
2022-12-27T00:22:40.503Z,101795.06
2022-12-27T00:25:09.122Z,101796.97
2022-12-27T00:27:37.477Z,101792.84
2022-12-27T00:30:07.555Z,101796.38
2022-12-27T00:32:35.454Z,101731.06
2022-12-27T00:35:03.618Z,101731.91
2022-12-27T00:37:31.753Z,101733.81
2022-12-27T00:40:01.631Z,101738.47
2022-12-27T00:42:29.575Z,101731.56
2022-12-27T00:44:57.397Z,101787.34
2022-12-27T00:47:25.268Z,101743.59
2022-12-27T00:49:55.914Z,101774.47
2022-12-27T00:52:24.064Z,101726.41
2022-12-27T00:54:51.977Z,101796.34
2022-12-27T00:57:19.700Z,101783.50
2022-12-27T00:59:48.507Z,101740.84
2022-12-27T01:02:16.420Z,101766.56
2022-12-27T01:04:45.684Z,101758.63
2022-12-27T01:07:14.515Z,101773.38
2022-12-27T01:09:42.309Z,101777.78
2022-12-27T01:12:10.157Z,101745.22
2022-12-27T01:14:38.045Z,101800.44
2022-12-27T01:17:06.032Z,101788.13
2022-12-27T01:19:36.543Z,101742.75
2022-12-27T01:22:05.533Z,101811.06
2022-12-27T01:24:34.775Z,101804.78
2022-12-27T01:27:02.970Z,101775.53
2022-12-27T01:29:30.897Z,101807.25
2022-12-27T01:31:58.631Z,101788.69
2022-12-27T01:34:26.739Z,101775.25
2022-12-27T01:36:54.707Z,101726.28
2022-12-27T01:39:22.590Z,101743.28
2022-12-27T01:42:11.421Z,101785.06
2022-12-27T01:44:39.762Z,101802.00
2022-12-27T01:47:19.923Z,101802.28
2022-12-27T01:50:05.194Z,101774.34
2022-12-27T01:52:39.855Z,101756.78
2022-12-27T01:55:18.443Z,101719.66
2022-12-27T01:57:48.287Z,101809.69
2022-12-27T02:00:16.837Z,101814.84
2022-12-27T02:02:45.181Z,101757.16
2022-12-27T02:05:16.564Z,101812.13
2022-12-27T02:08:22.828Z,101804.22
2022-12-27T02:10:51.324Z,101756.84
2022-12-27T02:13:20.928Z,101799.78
2022-12-27T02:15:48.918Z,101796.19
2022-12-27T02:18:18.014Z,101782.56
2022-12-27T02:21:31.862Z,101811.81
2022-12-27T02:24:30.714Z,101815.34
2022-12-27T02:27:32.507Z,101812.59
2022-12-27T02:30:06.801Z,101811.19
2022-12-27T02:32:47.097Z,101824.53
2022-12-27T02:35:22.485Z,101807.28
2022-12-27T02:38:14.362Z,101823.72
2022-12-27T02:41:04.559Z,101775.53
2022-12-27T02:43:54.147Z,101826.13
2022-12-27T02:46:44.053Z,101767.84
2022-12-27T02:49:54.570Z,101829.72
2022-12-27T02:52:56.478Z,101833.00
2022-12-27T02:56:05.544Z,101830.56
2022-12-27T02:58:51.777Z,101836.03
2022-12-27T03:02:22.246Z,101825.31
2022-12-27T03:04:53.278Z,101838.16
2022-12-27T03:07:35.868Z,101815.13
2022-12-27T03:10:31.306Z,101849.34
2022-12-27T03:13:32.962Z,101828.84
2022-12-27T03:16:15.015Z,101797.59
2022-12-27T03:19:01.886Z,101848.53
2022-12-27T03:21:55.951Z,101848.78
2022-12-27T03:24:53.597Z,101843.34
2022-12-27T03:27:31.831Z,101793.78
2022-12-27T03:30:21.557Z,101805.81
2022-12-27T03:33:13.412Z,101810.72
2022-12-27T03:36:11.271Z,101805.00
2022-12-27T03:39:09.015Z,101842.78
2022-12-27T03:42:02.841Z,101825.53
2022-12-27T03:44:30.825Z,101839.47
2022-12-27T03:46:59.871Z,101838.66
2022-12-27T03:49:44.750Z,101836.16
2022-12-27T03:52:28.176Z,101817.31
2022-12-27T03:54:56.465Z,101787.19
2022-12-27T03:57:27.863Z,101802.50
2022-12-27T03:59:57.598Z,101778.97
2022-12-27T04:02:25.483Z,101826.66
2022-12-27T04:04:53.658Z,101832.13
2022-12-27T04:07:21.604Z,101797.09
2022-12-27T04:10:07.971Z,101801.19
2022-12-27T04:12:54.323Z,101790.50
2022-12-27T04:15:40.586Z,101759.09
2022-12-27T04:18:26.873Z,101804.19
2022-12-27T04:21:13.468Z,101788.63
2022-12-27T04:23:59.718Z,101785.06
2022-12-27T04:26:45.960Z,101805.84
2022-12-27T04:29:32.095Z,101818.41
2022-12-27T04:32:18.377Z,101806.09
2022-12-27T04:34:46.307Z,101808.53
2022-12-27T04:37:20.738Z,101831.16
2022-12-27T04:40:09.276Z,101795.38
2022-12-27T04:42:55.535Z,101827.63
2022-12-27T04:45:42.311Z,101790.97
2022-12-27T04:48:33.705Z,101833.06
2022-12-27T04:51:31.117Z,101790.34
2022-12-27T04:54:17.644Z,101833.06
2022-12-27T04:56:45.518Z,101824.88
2022-12-27T04:59:31.956Z,101835.50
2022-12-27T05:02:05.875Z,101832.50
2022-12-27T05:04:37.187Z,101819.41
2022-12-27T05:07:29.697Z,101825.09
2022-12-27T05:10:18.557Z,101825.94
2022-12-27T05:13:04.883Z,101831.09
2022-12-27T05:15:33.536Z,101845.59
2022-12-27T05:18:01.299Z,101846.41
2022-12-27T05:20:29.207Z,101832.13
2022-12-27T05:23:15.574Z,101853.44
2022-12-27T05:25:45.814Z,101834.03
2022-12-27T05:28:14.218Z,101813.28
2022-12-27T05:30:43.768Z,101853.75
2022-12-27T05:33:11.842Z,101858.13
2022-12-27T05:35:40.681Z,101842.00
2022-12-27T05:38:10.770Z,101851.25
2022-12-27T05:40:38.607Z,101792.19
2022-12-27T05:43:06.676Z,101799.84
2022-12-27T05:45:34.746Z,101813.22
2022-12-27T05:48:02.601Z,101861.66
2022-12-27T05:50:32.162Z,101869.31
2022-12-27T05:53:11.334Z,101835.13
2022-12-27T05:55:39.380Z,101825.28
2022-12-27T05:58:07.549Z,101866.31
2022-12-27T06:00:35.409Z,101870.16
2022-12-27T06:03:04.086Z,101856.97
2022-12-27T06:05:32.141Z,101778.41
2022-12-27T06:07:59.961Z,101859.16
2022-12-27T06:10:27.953Z,101864.31
2022-12-27T06:12:55.787Z,101849.75
2022-12-27T06:15:23.515Z,101808.94
2022-12-27T06:17:51.322Z,101877.97
2022-12-27T06:20:19.327Z,101877.72
2022-12-27T06:22:47.695Z,101833.34
2022-12-27T06:25:15.510Z,101883.72
2022-12-27T06:27:46.803Z,101887.22
2022-12-27T06:30:15.655Z,101888.03
2022-12-27T06:32:43.766Z,101853.78
2022-12-27T06:35:11.690Z,101886.31
2022-12-27T06:37:40.325Z,101898.09
2022-12-27T06:40:08.983Z,101872.63
2022-12-27T06:42:36.741Z,101896.19
2022-12-27T06:45:06.542Z,101895.66
2022-12-27T06:47:34.227Z,101893.41
2022-12-27T06:50:02.358Z,101874.00
2022-12-27T06:52:30.100Z,101788.25
2022-12-27T06:54:57.943Z,101885.78
2022-12-27T06:57:25.695Z,101788.09
2022-12-27T06:59:54.235Z,101860.59
2022-12-27T07:02:22.242Z,101883.69
2022-12-27T07:04:50.399Z,101905.03
2022-12-27T07:07:18.214Z,101876.91
2022-12-27T07:09:46.052Z,101899.03
2022-12-27T07:12:13.833Z,101923.13
2022-12-27T07:14:42.179Z,101907.88
2022-12-27T07:17:09.969Z,101923.94
2022-12-27T07:19:37.789Z,101912.81
2022-12-27T07:22:05.681Z,101902.13
2022-12-27T07:24:33.651Z,101842.94
2022-12-27T07:27:05.499Z,101905.16
2022-12-27T07:29:33.175Z,101905.69
2022-12-27T07:32:00.979Z,101893.00
2022-12-27T07:34:29.207Z,101925.91
2022-12-27T07:36:57.060Z,101883.19
2022-12-27T07:39:24.975Z,101895.53
2022-12-27T07:41:52.804Z,101924.56
2022-12-27T07:44:20.490Z,101864.81
2022-12-27T07:46:48.426Z,101924.81
2022-12-27T07:49:17.982Z,101837.78
2022-12-27T07:51:46.300Z,101886.72
2022-12-27T07:54:14.191Z,101864.59
2022-12-27T07:56:44.303Z,101933.06
2022-12-27T07:59:13.509Z,101928.69
2022-12-27T08:01:59.969Z,101934.16
2022-12-27T08:04:28.828Z,101888.66
2022-12-27T08:07:12.228Z,101938.50
2022-12-27T08:09:42.212Z,101935.72
2022-12-27T08:12:10.287Z,101949.41
2022-12-27T08:14:38.361Z,101942.31
2022-12-27T08:17:16.697Z,101924.22
2022-12-27T08:19:45.739Z,101941.72
2022-12-27T08:22:14.207Z,101949.69
2022-12-27T08:24:42.464Z,101910.44
2022-12-27T08:27:12.069Z,101955.13
2022-12-27T08:29:40.329Z,101925.50
2022-12-27T08:32:08.511Z,101945.00
2022-12-27T08:34:36.635Z,101941.72
2022-12-27T08:37:05.264Z,101927.22
2022-12-27T08:39:33.217Z,101956.22
2022-12-27T08:42:01.583Z,101945.03
2022-12-27T08:44:29.711Z,101938.72
2022-12-27T08:46:57.688Z,101862.84
2022-12-27T08:49:25.787Z,101949.69
2022-12-27T08:51:53.666Z,101913.22
2022-12-27T08:54:21.735Z,101968.63
2022-12-27T08:56:51.035Z,101973.31
2022-12-27T08:59:19.461Z,101940.69
2022-12-27T09:01:48.443Z,101948.66
2022-12-27T09:04:16.360Z,101916.59
2022-12-27T09:06:44.670Z,101957.94
2022-12-27T09:09:12.422Z,101985.03
2022-12-27T09:11:40.230Z,101980.66
2022-12-27T09:14:08.052Z,101985.03
2022-12-27T09:16:36.288Z,101957.09
2022-12-27T09:19:04.730Z,101959.81
2022-12-27T09:21:34.419Z,101990.47
2022-12-27T09:24:03.086Z,101988.84
2022-12-27T09:26:32.269Z,101990.75
2022-12-27T09:29:00.851Z,101930.47
2022-12-27T09:31:31.981Z,102003.63
2022-12-27T09:33:59.981Z,101982.84
2022-12-27T09:36:29.998Z,102001.78
2022-12-27T09:38:58.820Z,102007.50
2022-12-27T09:44:48.496Z,101958.75
2022-12-27T09:47:27.351Z,101985.03
2022-12-27T09:50:06.373Z,101999.81
2022-12-27T09:52:46.117Z,101999.81
2022-12-27T09:55:39.517Z,101919.00
2022-12-27T09:58:25.872Z,102004.72
2022-12-27T10:00:53.763Z,101994.50
2022-12-27T10:03:27.824Z,101964.66
2022-12-27T10:06:23.688Z,101991.78
2022-12-27T10:09:06.590Z,102016.47
2022-12-27T10:12:14.345Z,102004.66
2022-12-27T10:15:25.025Z,102000.63
2022-12-27T10:18:21.167Z,102006.41
2022-12-27T10:21:00.053Z,101932.22
2022-12-27T10:23:34.552Z,102012.28
2022-12-27T10:26:15.691Z,101994.78
2022-12-27T10:28:46.639Z,102002.50
2022-12-27T10:31:17.987Z,101982.84
2022-12-27T10:33:47.807Z,101977.06
2022-12-27T10:36:25.579Z,101958.47
2022-12-27T10:38:53.829Z,101999.56
2022-12-27T10:41:50.258Z,102006.13
2022-12-27T10:44:18.419Z,101956.88
2022-12-27T10:46:53.185Z,101952.19
2022-12-27T10:49:25.040Z,101912.81
2022-12-27T10:51:57.068Z,101991.94
2022-12-27T10:54:29.315Z,101987.31
2022-12-27T10:57:17.230Z,101983.72
2022-12-27T10:59:45.533Z,101926.47
2022-12-27T11:02:19.153Z,101978.50
2022-12-27T11:05:01.714Z,101877.41
2022-12-27T11:07:32.538Z,101940.69
2022-12-27T11:10:21.922Z,101941.81
2022-12-27T11:13:05.672Z,101966.50
2022-12-27T11:15:48.127Z,101953.81
2022-12-27T11:18:21.276Z,101944.88
2022-12-27T11:20:51.191Z,101950.94
2022-12-27T11:23:21.684Z,101937.22
2022-12-27T11:25:54.474Z,101927.38
2022-12-27T11:28:25.857Z,101941.66
2022-12-27T11:31:01.049Z,101932.59
2022-12-27T11:33:46.236Z,101930.69
2022-12-27T11:36:23.757Z,101907.97
2022-12-27T11:38:51.488Z,101937.53
2022-12-27T11:41:49.907Z,101922.84
2022-12-27T11:44:20.744Z,101851.94
2022-12-27T11:47:12.512Z,101920.94
2022-12-27T11:49:53.848Z,101896.28
2022-12-27T11:52:44.383Z,101910.25
2022-12-27T11:55:34.191Z,101919.84
2022-12-27T11:58:34.283Z,101905.94
2022-12-27T12:01:28.164Z,101905.09
2022-12-27T12:04:14.328Z,101899.09
2022-12-27T12:06:48.495Z,101894.75
2022-12-27T12:09:29.463Z,101881.34
2022-12-27T12:12:22.119Z,101885.94
2022-12-27T12:15:14.728Z,101880.50
2022-12-27T12:18:00.197Z,101876.69
2022-12-27T12:20:52.821Z,101879.94
2022-12-27T12:23:30.584Z,101873.41
2022-12-27T12:26:13.755Z,101867.94
2022-12-27T12:29:25.406Z,101847.44
2022-12-27T12:31:58.888Z,101860.31
2022-12-27T12:34:57.155Z,101838.47
2022-12-27T12:37:40.041Z,101846.72
2022-12-27T12:40:24.963Z,101843.19
2022-12-27T12:43:31.980Z,101804.63
2022-12-27T12:46:37.621Z,101828.22
2022-12-27T12:49:29.935Z,101826.84
2022-12-27T12:52:26.027Z,101788.28
2022-12-27T12:55:02.794Z,101825.22
2022-12-27T12:57:42.207Z,101777.34
2022-12-27T13:00:31.272Z,101821.38
2022-12-27T13:03:30.393Z,101819.19
2022-12-27T13:06:12.995Z,101815.66
2022-12-27T13:08:53.139Z,101811.25
2022-12-27T13:11:39.251Z,101808.53
2022-12-27T13:14:17.353Z,101732.31
2022-12-27T13:16:45.631Z,101793.53
2022-12-27T13:19:41.461Z,101799.00
2022-12-27T13:22:18.715Z,101788.38
2022-12-27T13:24:46.381Z,101792.75
2022-12-27T13:27:36.739Z,101784.81
2022-12-27T13:30:17.022Z,101791.66
2022-12-27T13:33:11.814Z,101779.66
2022-12-27T13:35:59.811Z,101715.72
2022-12-27T13:38:35.376Z,101767.91
2022-12-27T13:41:11.141Z,101774.75
2022-12-27T13:43:45.136Z,101773.66
2022-12-27T13:46:51.605Z,101770.13
2022-12-27T13:49:52.448Z,101687.31
2022-12-27T13:53:00.022Z,101769.03
2022-12-27T13:55:31.195Z,101689.50
2022-12-27T13:58:27.622Z,101760.53
2022-12-27T14:01:24.184Z,101759.44
2022-12-27T14:04:15.540Z,101763.84
2022-12-27T14:06:59.562Z,101762.47
2022-12-27T14:09:56.692Z,101767.38
2022-12-27T14:12:37.964Z,101770.91
2022-12-27T14:15:18.748Z,101671.78
2022-12-27T14:18:12.913Z,101761.09
2022-12-27T14:21:06.881Z,101759.47
2022-12-27T14:23:53.890Z,101730.53
2022-12-27T14:26:40.630Z,101751.28
2022-12-27T14:29:57.629Z,101757.84
2022-12-27T14:32:56.686Z,101754.81
2022-12-27T14:36:03.943Z,101723.69
2022-12-27T14:38:48.998Z,101756.19
2022-12-27T14:41:47.331Z,101697.72
2022-12-27T14:44:27.674Z,101745.56
2022-12-27T14:47:33.001Z,101743.63
2022-12-27T14:50:31.408Z,101750.72
2022-12-27T14:53:23.918Z,101743.91
2022-12-27T14:56:01.843Z,101743.63
2022-12-27T14:59:00.994Z,101742.25
2022-12-27T15:01:37.689Z,101757.81
2022-12-27T15:04:35.333Z,101736.81
2022-12-27T15:07:25.185Z,101748.53
2022-12-27T15:09:59.134Z,101743.63
2022-12-27T15:12:44.958Z,101714.16
2022-12-27T15:15:34.561Z,101735.44
2022-12-27T15:18:24.867Z,101744.19
2022-12-27T15:21:17.913Z,101740.34
2022-12-27T15:23:48.983Z,101745.00
2022-12-27T15:26:35.098Z,101746.88
2022-12-27T15:29:30.916Z,101698.56
2022-12-27T15:32:12.148Z,101753.72
2022-12-27T15:34:44.759Z,101750.72
2022-12-27T15:37:47.690Z,101754.50
2022-12-27T15:40:25.021Z,101758.91
2022-12-27T15:43:13.636Z,101755.28
2022-12-27T15:46:15.098Z,101759.97
2022-12-27T15:49:08.044Z,101763.22
2022-12-27T15:51:40.875Z,101764.06
2022-12-27T15:54:51.831Z,101764.88
2022-12-27T15:57:39.565Z,101772.78
2022-12-27T16:00:22.676Z,101759.38
2022-12-27T16:02:53.980Z,101764.81
2022-12-27T16:05:22.655Z,101774.34
2022-12-27T16:07:50.467Z,101765.06
2022-12-27T16:10:30.675Z,101777.63
2022-12-27T16:13:09.431Z,101769.44
2022-12-27T16:15:43.703Z,101765.91
2022-12-27T16:18:18.419Z,101772.16
2022-12-27T16:21:04.123Z,101742.91
2022-12-27T16:23:34.100Z,101760.97
2022-12-27T16:26:07.482Z,101773.53
2022-12-27T16:28:37.394Z,101774.63
2022-12-27T16:31:11.903Z,101703.56
2022-12-27T16:35:14.816Z,101743.97
2022-12-27T16:37:51.831Z,101753.00
2022-12-27T16:40:38.451Z,101782.50
2022-12-27T16:43:31.552Z,101767.75
2022-12-27T16:46:08.612Z,101785.50
2022-12-27T16:48:58.565Z,101785.50
2022-12-27T16:52:00.889Z,101785.50
2022-12-27T16:54:34.954Z,101792.59
2022-12-27T16:57:24.724Z,101790.13
2022-12-27T17:00:04.849Z,101797.47
2022-12-27T17:02:48.682Z,101767.19
2022-12-27T17:05:17.786Z,101792.56
2022-12-27T17:08:10.605Z,101794.22
2022-12-27T17:10:50.822Z,101796.06
2022-12-27T17:13:23.478Z,101803.44
2022-12-27T17:15:58.773Z,101801.53
2022-12-27T17:18:38.400Z,101799.91
2022-12-27T17:21:14.199Z,101792.22
2022-12-27T17:23:47.257Z,101779.34
2022-12-27T17:26:30.071Z,101798.22
2022-12-27T17:29:13.386Z,101806.13
2022-12-27T17:31:53.042Z,101801.22
2022-12-27T17:34:41.979Z,101791.09
2022-12-27T17:37:29.523Z,101701.19
2022-12-27T17:40:13.475Z,101788.97
2022-12-27T17:43:17.888Z,101791.69
2022-12-27T17:46:10.796Z,101787.00
2022-12-27T17:48:39.046Z,101794.38
2022-12-27T17:51:15.096Z,101799.59
2022-12-27T17:54:07.705Z,101790.84
2022-12-27T17:57:07.194Z,101796.28
2022-12-27T17:59:35.130Z,101791.66
2022-12-27T18:02:21.711Z,101796.59
2022-12-27T18:04:55.592Z,101797.09
2022-12-27T18:07:27.753Z,101797.09
2022-12-27T18:10:01.298Z,101800.38
2022-12-27T18:12:34.893Z,101802.28
2022-12-27T18:15:09.715Z,101807.75
2022-12-27T18:17:45.165Z,101801.78
2022-12-27T18:20:28.549Z,101802.84
2022-12-27T18:23:02.544Z,101808.31
2022-12-27T18:25:42.922Z,101783.69
2022-12-27T18:28:33.416Z,101783.13
2022-12-27T18:31:47.665Z,101807.75
2022-12-27T18:34:26.958Z,101817.00
2022-12-27T18:37:01.136Z,101814.00
2022-12-27T18:39:35.820Z,101821.34
2022-12-27T18:42:28.886Z,101786.38
2022-12-27T18:45:15.911Z,101721.84
2022-12-27T18:47:48.983Z,101671.81
2022-12-27T18:50:21.314Z,101810.19
2022-12-27T18:52:59.655Z,101775.63
2022-12-27T18:55:28.059Z,101788.50
2022-12-27T18:58:05.435Z,101818.03
2022-12-27T19:00:46.636Z,101820.22
2022-12-27T19:03:17.454Z,101821.31
2022-12-27T19:06:09.456Z,101821.63
2022-12-27T19:08:51.340Z,101815.34
2022-12-27T19:11:22.638Z,101798.94
2022-12-27T19:13:55.308Z,101801.91
2022-12-27T19:16:31.947Z,101800.00
2022-12-27T19:19:08.884Z,101781.94
2022-12-27T19:21:38.683Z,101816.09
2022-12-27T19:24:27.940Z,101824.91
2022-12-27T19:26:58.301Z,101816.72
2022-12-27T19:29:29.845Z,101805.22
2022-12-27T19:32:07.041Z,101801.66
2022-12-27T19:34:56.653Z,101794.28
2022-12-27T19:37:30.865Z,101820.53
2022-12-27T19:40:00.370Z,101817.50
2022-12-27T19:42:31.496Z,101800.63
2022-12-27T19:44:59.922Z,101797.38
2022-12-27T19:47:28.206Z,101798.19
2022-12-27T19:49:56.068Z,101695.38
2022-12-27T19:52:27.131Z,101756.03
2022-12-27T19:55:05.033Z,101817.03
2022-12-27T19:57:32.831Z,101807.72
2022-12-27T20:00:04.112Z,101818.66
2022-12-27T20:02:35.240Z,101815.94
2022-12-27T20:05:03.822Z,101803.38
2022-12-27T20:07:31.680Z,101809.94
2022-12-27T20:09:59.692Z,101781.53
2022-12-27T20:12:27.615Z,101797.59
2022-12-27T20:14:55.489Z,101777.13
2022-12-27T20:17:23.746Z,101809.91
2022-12-27T20:19:51.869Z,101806.38
2022-12-27T20:22:19.613Z,101797.38
2022-12-27T20:24:47.844Z,101800.41
2022-12-27T20:27:20.109Z,101779.84
2022-12-27T20:29:49.245Z,101741.88
2022-12-27T20:32:17.480Z,101790.56
2022-12-27T20:34:45.298Z,101799.59
2022-12-27T20:37:13.352Z,101771.66
2022-12-27T20:39:42.950Z,101808.81
2022-12-27T20:42:12.458Z,101785.38
2022-12-27T20:44:40.329Z,101769.81
2022-12-27T20:47:08.224Z,101756.41
2022-12-27T20:49:37.280Z,101801.81
2022-12-27T20:52:05.323Z,101780.47
2022-12-27T20:54:33.113Z,101790.31
2022-12-27T20:57:01.597Z,101804.53
2022-12-27T20:59:31.275Z,101800.72
2022-12-27T21:01:59.903Z,101795.53
2022-12-27T21:04:28.163Z,101779.66
2022-12-27T21:07:21.539Z,101805.66
2022-12-27T21:09:53.493Z,101757.84
2022-12-27T21:12:21.770Z,101781.63
2022-12-27T21:14:50.275Z,101776.97
2022-12-27T21:17:18.297Z,101802.94
2022-12-27T21:19:46.257Z,101802.06
2022-12-27T21:22:14.171Z,101801.25
2022-12-27T21:24:43.250Z,101802.06
2022-12-27T21:27:12.053Z,101800.72
2022-12-27T21:29:40.247Z,101783.78
2022-12-27T21:32:08.884Z,101684.78
2022-12-27T21:34:37.500Z,101790.09
2022-12-27T21:37:10.011Z,101805.84
2022-12-27T21:39:40.999Z,101781.25
2022-12-27T21:42:08.813Z,101731.19
2022-12-27T21:44:39.124Z,101793.00
2022-12-27T21:47:08.669Z,101791.66
2022-12-27T21:49:40.555Z,101789.44
2022-12-27T21:52:08.598Z,101744.03
2022-12-27T21:54:36.520Z,101753.38
2022-12-27T21:57:04.871Z,101790.53
2022-12-27T21:59:33.378Z,101773.34
2022-12-27T22:02:03.755Z,101706.34
2022-12-27T22:04:31.745Z,101784.28
2022-12-27T22:06:59.632Z,101695.41
2022-12-27T22:09:27.747Z,101781.53
2022-12-27T22:11:55.614Z,101775.47
2022-12-27T22:14:25.581Z,101735.59
2022-12-27T22:16:54.116Z,101731.72
2022-12-27T22:19:21.906Z,101779.31
2022-12-27T22:21:50.111Z,101753.38
2022-12-27T22:24:20.257Z,101776.06
2022-12-27T22:26:50.408Z,101688.28
2022-12-27T22:29:18.652Z,101767.63
2022-12-27T22:31:46.897Z,101707.44
2022-12-27T22:34:15.200Z,101667.81
2022-12-27T22:36:43.184Z,101732.88
2022-12-27T22:39:11.502Z,101731.47
2022-12-27T22:41:39.435Z,101714.81
2022-12-27T22:44:12.338Z,101762.94
2022-12-27T22:49:29.345Z,101750.38
2022-12-27T22:51:57.026Z,101752.06
2022-12-27T22:55:04.232Z,101746.31
2022-12-27T22:57:12.640Z,101756.44
2022-12-27T22:59:40.791Z,101743.38
2022-12-27T23:02:08.496Z,101707.81
2022-12-27T23:04:36.340Z,101757.84
2022-12-27T23:07:05.350Z,101749.63
2022-12-27T23:09:39.205Z,101704.53
2022-12-27T23:12:10.545Z,101691.69
2022-12-27T23:14:38.931Z,101705.06
2022-12-27T23:17:06.868Z,101704.50
2022-12-27T23:19:34.567Z,101733.22
2022-12-27T23:22:02.557Z,101732.44
2022-12-27T23:24:30.639Z,101735.19
2022-12-27T23:26:58.568Z,101712.41
2022-12-27T23:29:26.365Z,101740.34
2022-12-27T23:31:55.905Z,101744.69
2022-12-27T23:34:28.681Z,101738.38
2022-12-27T23:36:58.526Z,101695.41
2022-12-27T23:39:27.743Z,101650.06
2022-12-27T23:41:56.958Z,101733.94
2022-12-27T23:44:33.631Z,101700.31
2022-12-27T23:47:05.504Z,101702.00
2022-12-27T23:49:34.088Z,101724.16
2022-12-27T23:52:03.817Z,101724.16
2022-12-27T23:54:31.672Z,101711.03
2022-12-27T23:57:19.546Z,101635.59
2022-12-27T23:59:47.896Z,101705.03
